This is the latest recevied weather packets stored in our database for station/object 9W3FAB-3. If no packets are shown the sender has not sent any weather packets the latest 1 day(s).
| Time | Temp. | Humidity | Pressure | Rain* | Wind** | Luminosity | Snow |
|---|---|---|---|---|---|---|---|
| 1778054987 | 24.44° C | 60% | 1003.8 hPa | - | - | - | - |
| 1778054086 | 25° C | 61% | 1004.1 hPa | - | - | - | - |
| 1778052286 | 24.44° C | 61% | 1004.4 hPa | - | - | - | - |
| 1778050481 | 25° C | 59% | 1004.3 hPa | - | - | - | - |
| 1778047779 | 24.44° C | 56% | 1005.1 hPa | - | - | - | - |
| 1778046878 | 24.44° C | 54% | 1005.3 hPa | - | - | - | - |
| 1778045977 | 25° C | 55% | 1005.6 hPa | - | - | - | - |
| 1778045076 | 25.56° C | 58% | 1005.9 hPa | - | - | - | - |
| 1778044175 | 25° C | 59% | 1006.1 hPa | - | - | - | - |
| 1778042374 | 25° C | 59% | 1006.5 hPa | - | - | - | - |
| 1778041473 | 25.56° C | 58% | 1006.8 hPa | - | - | - | - |
| 1778040572 | 25.56° C | 57% | 1006.9 hPa | - | - | - | - |
| 1778039671 | 25.56° C | 55% | 1007.1 hPa | - | - | - | - |
| 1778038770 | 25° C | 54% | 1007 hPa | - | - | - | - |
| 1778037869 | 26.11° C | 58% | 1007.5 hPa | - | - | - | - |
| 1778036968 | 25.56° C | 58% | 1007.6 hPa | - | - | - | - |
| 1778035238 | 24.44° C | 54% | 1008 hPa | - | - | - | - |
| 1778034337 | 25° C | 55% | 1008 hPa | - | - | - | - |
| 1778033438 | 25° C | 55% | 1008.2 hPa | - | - | - | - |
| 1778032530 | 25° C | 56% | 1008.4 hPa | - | - | - | - |
| 1778031631 | 25° C | 56% | 1008.3 hPa | - | - | - | - |
| 1778030728 | 25° C | 57% | 1008.4 hPa | - | - | - | - |
| 1778029827 | 25° C | 57% | 1008.2 hPa | - | - | - | - |
| 1778028926 | 25° C | 58% | 1008.2 hPa | - | - | - | - |
* Rain since midnight (hover to see other rain measurements)
** Current wind speed in m/s (hover to see current wind gust speed)